Bow Pilot — S6EN — position and weather

sailwx.info

Track history (hours):
 
Tides and Currents Weather Stations Pressure Air Temp Water Temp Dewpoint Dewpoint Depression Visibility Wind Speed Wind Dir Waves Ship Positions

Bow Pilot

Last reported at 2014-Oct-22 11:22 UTC. Time now 2014-Oct-22 23:10 UTC.
Position N 38°22' W 009°51'.

Length 104 m; draft 7.5 m.

Type: Ship. MMSI: 564978000.

Date/timePositionNaut miles runAvg speedWind from/ knotsBaromVisibWave heightAir tempDewpointWater temp
2014-Oct-22 11:22N 38°22' W 009°51'1011.6
2014-Oct-22 10:32N 38°12' W 009°48'1211.8
2014-Oct-22 09:33N 38°01' W 009°45'1211.7
2014-Oct-22 08:32N 37°49' W 009°41'1111.4
2014-Oct-22 07:32N 37°38' W 009°38'1211.9
2014-Oct-22 06:33N 37°27' W 009°34'1211.9
2014-Oct-22 05:32N 37°15' W 009°31'1211.8
2014-Oct-22 04:33N 37°04' W 009°27'3610.6
2014-Oct-22 01:08N 36°37' W 008°57'711.6
2014-Oct-22 00:33N 36°35' W 008°49'1211.7
2014-Oct-21 23:33N 36°32' W 008°35'15011.5
2014-Oct-21 10:31N 35°58' W 005°34'1011.0
2014-Oct-21 09:34N 35°57' W 005°21'4 3.6
2014-Oct-21 08:33N 35°54' W 005°19'0 0.0
2014-Oct-21 07:33N 35°54' W 005°19'0 0.0
2014-Oct-21 06:33N 35°54' W 005°19'0 0.0
2014-Oct-21 05:33N 35°54' W 005°19'293 9.7
2014-Oct-19 23:15N 38°06' E 000°08'4411.6
2014-Oct-19 19:26N 38°44' E 000°37'7011.8
2014-Oct-19 13:31N 39°52' E 000°57'1312.2
2014-Oct-19 12:28N 40°05' E 000°60'2812.0
2014-Oct-19 10:09N 40°32' E 001°06'35 1.8
2014-Oct-18 15:23N 41°06' E 001°14'0 0.0
2014-Oct-18 14:23N 41°06' E 001°14'0 0.0
2014-Oct-18 06:11N 41°06' E 001°14'0 0.0
2014-Oct-18 04:23N 41°06' E 001°14'0 0.0
2014-Oct-18 03:33N 41°06' E 001°14'2 1.7
2014-Oct-18 02:33N 41°04' E 001°14'1 0.3
2014-Oct-17 22:32N 41°05' E 001°15'0 0.0
2014-Oct-17 21:14N 41°05' E 001°15'0 0.0
2014-Oct-17 20:32N 41°05' E 001°15'0 0.0
2014-Oct-17 19:32N 41°05' E 001°15'0 0.0
2014-Oct-17 18:32N 41°05' E 001°15'0 0.0
2014-Oct-17 16:32N 41°05' E 001°15'0 0.0
2014-Oct-17 15:26N 41°05' E 001°15'2 0.2
2014-Oct-17 05:33N 41°03' E 001°16'1111.0
2014-Oct-17 04:33N 40°59' E 001°29'1010.1
2014-Oct-17 03:33N 40°55' E 001°42'1111.1
2014-Oct-17 02:33N 40°52' E 001°55'1211.5
2014-Oct-17 01:33N 40°48' E 002°10'1111.5
2014-Oct-17 00:33N 40°44' E 002°24'1111.1
2014-Oct-16 23:33N 40°40' E 002°38'1010.5
2014-Oct-16 22:33N 40°36' E 002°51'1010.4
2014-Oct-16 21:33N 40°32' E 003°04'1010.5
2014-Oct-16 20:33N 40°28' E 003°16'52011.8
2014-Oct-15 00:24N 36°46' E 013°17'1112.3
2014-Oct-14 23:33N 36°42' E 013°30'1212.3
2014-Oct-14 22:33N 36°39' E 013°44'1212.1
2014-Oct-14 21:33N 36°34' E 013°59'1212.1
2014-Oct-14 20:33N 36°30' E 014°13'1212.1
2014-Oct-14 19:33N 36°27' E 014°27'1211.9
2014-Oct-14 18:33N 36°25' E 014°42'1212.0
2014-Oct-14 17:33N 36°24' E 014°57'41111.1
2014-Oct-13 04:33N 36°44' E 023°27'5012.2
2014-Oct-13 00:24N 37°21' E 024°10'1412.8
2014-Oct-12 23:18N 37°31' E 024°23'  
Track history (hours):
 
Tides and Currents Weather Stations Pressure Air Temp Water Temp Dewpoint Dewpoint Depression Visibility Wind Speed Wind Dir Waves Ship Positions

Bow Pilot

Last reported at 2014-Oct-22 11:22 UTC. Time now 2014-Oct-22 23:10 UTC.
Position N 38°22' W 009°51'.

Length 104 m; draft 7.5 m.

Type: Ship. MMSI: 564978000.

Date/timePositionNaut miles runAvg speedWind from/ knotsBaromVisibWave heightAir tempDewpointWater temp
2014-Oct-22 11:22N 38°22' W 009°51'1011.6
2014-Oct-22 10:32N 38°12' W 009°48'1211.8
2014-Oct-22 09:33N 38°01' W 009°45'1211.7
2014-Oct-22 08:32N 37°49' W 009°41'1111.4
2014-Oct-22 07:32N 37°38' W 009°38'1211.9
2014-Oct-22 06:33N 37°27' W 009°34'1211.9
2014-Oct-22 05:32N 37°15' W 009°31'1211.8
2014-Oct-22 04:33N 37°04' W 009°27'3610.6
2014-Oct-22 01:08N 36°37' W 008°57'711.6
2014-Oct-22 00:33N 36°35' W 008°49'1211.7
2014-Oct-21 23:33N 36°32' W 008°35'15011.5
2014-Oct-21 10:31N 35°58' W 005°34'1011.0
2014-Oct-21 09:34N 35°57' W 005°21'4 3.6
2014-Oct-21 08:33N 35°54' W 005°19'0 0.0
2014-Oct-21 07:33N 35°54' W 005°19'0 0.0
2014-Oct-21 06:33N 35°54' W 005°19'0 0.0
2014-Oct-21 05:33N 35°54' W 005°19'293 9.7
2014-Oct-19 23:15N 38°06' E 000°08'4411.6
2014-Oct-19 19:26N 38°44' E 000°37'7011.8
2014-Oct-19 13:31N 39°52' E 000°57'1312.2
2014-Oct-19 12:28N 40°05' E 000°60'2812.0
2014-Oct-19 10:09N 40°32' E 001°06'35 1.8
2014-Oct-18 15:23N 41°06' E 001°14'0 0.0
2014-Oct-18 14:23N 41°06' E 001°14'0 0.0
2014-Oct-18 06:11N 41°06' E 001°14'0 0.0
2014-Oct-18 04:23N 41°06' E 001°14'0 0.0
2014-Oct-18 03:33N 41°06' E 001°14'2 1.7
2014-Oct-18 02:33N 41°04' E 001°14'1 0.3
2014-Oct-17 22:32N 41°05' E 001°15'0 0.0
2014-Oct-17 21:14N 41°05' E 001°15'0 0.0
2014-Oct-17 20:32N 41°05' E 001°15'0 0.0
2014-Oct-17 19:32N 41°05' E 001°15'0 0.0
2014-Oct-17 18:32N 41°05' E 001°15'0 0.0
2014-Oct-17 16:32N 41°05' E 001°15'0 0.0
2014-Oct-17 15:26N 41°05' E 001°15'2 0.2
2014-Oct-17 05:33N 41°03' E 001°16'1111.0
2014-Oct-17 04:33N 40°59' E 001°29'1010.1
2014-Oct-17 03:33N 40°55' E 001°42'1111.1
2014-Oct-17 02:33N 40°52' E 001°55'1211.5
2014-Oct-17 01:33N 40°48' E 002°10'1111.5
2014-Oct-17 00:33N 40°44' E 002°24'1111.1
2014-Oct-16 23:33N 40°40' E 002°38'1010.5
2014-Oct-16 22:33N 40°36' E 002°51'1010.4
2014-Oct-16 21:33N 40°32' E 003°04'1010.5
2014-Oct-16 20:33N 40°28' E 003°16'52011.8
2014-Oct-15 00:24N 36°46' E 013°17'1112.3
2014-Oct-14 23:33N 36°42' E 013°30'1212.3
2014-Oct-14 22:33N 36°39' E 013°44'1212.1
2014-Oct-14 21:33N 36°34' E 013°59'1212.1
2014-Oct-14 20:33N 36°30' E 014°13'1212.1
2014-Oct-14 19:33N 36°27' E 014°27'1211.9
2014-Oct-14 18:33N 36°25' E 014°42'1212.0
2014-Oct-14 17:33N 36°24' E 014°57'41111.1
2014-Oct-13 04:33N 36°44' E 023°27'5012.2
2014-Oct-13 00:24N 37°21' E 024°10'1412.8
2014-Oct-12 23:18N 37°31' E 024°23'  

Dump ship's entire track history